createdAt,value
2019-01-22T00:00:12.574Z,-4.90
2019-01-22T00:02:41.002Z,-4.90
2019-01-22T00:05:09.948Z,-5.00
2019-01-22T00:07:38.437Z,-5.00
2019-01-22T00:10:09.176Z,-5.00
2019-01-22T00:12:37.702Z,-5.10
2019-01-22T00:15:09.699Z,-5.10
2019-01-22T00:17:38.497Z,-5.00
2019-01-22T00:20:09.653Z,-5.00
2019-01-22T00:22:38.217Z,-5.10
2019-01-22T00:25:09.581Z,-5.10
2019-01-22T00:27:38.080Z,-5.00
2019-01-22T00:30:09.766Z,-5.10
2019-01-22T00:32:38.257Z,-5.10
2019-01-22T00:35:06.931Z,-5.00
2019-01-22T00:37:35.498Z,-5.10
2019-01-22T00:40:06.670Z,-5.00
2019-01-22T00:42:35.093Z,-5.10
2019-01-22T00:45:05.417Z,-5.20
2019-01-22T00:47:33.928Z,-5.20
2019-01-22T00:50:02.584Z,-5.20
2019-01-22T00:52:31.384Z,-5.20
2019-01-22T00:54:59.821Z,-5.30
2019-01-22T00:57:28.628Z,-5.30
2019-01-22T00:59:57.365Z,-5.20
2019-01-22T01:02:25.777Z,-5.20
2019-01-22T01:04:54.204Z,-5.20
2019-01-22T01:07:22.806Z,-5.40
2019-01-22T01:09:51.301Z,-5.30
2019-01-22T01:12:20.178Z,-5.30
2019-01-22T01:14:48.897Z,-5.30
2019-01-22T01:17:17.343Z,-5.30
2019-01-22T01:19:45.759Z,-5.30
2019-01-22T01:22:14.323Z,-5.30
2019-01-22T01:24:42.754Z,-5.40
2019-01-22T01:27:11.454Z,-5.40
2019-01-22T01:29:40.051Z,-5.40
2019-01-22T01:32:08.486Z,-5.50
2019-01-22T01:34:37.022Z,-5.50
2019-01-22T01:37:05.522Z,-5.60
2019-01-22T01:39:33.948Z,-5.70
2019-01-22T01:42:02.545Z,-5.60
2019-01-22T01:44:31.156Z,-5.60
2019-01-22T01:46:59.662Z,-5.60
2019-01-22T01:49:28.162Z,-5.60
2019-01-22T01:51:56.645Z,-5.70
2019-01-22T01:54:25.088Z,-5.70
2019-01-22T01:56:53.847Z,-5.70
2019-01-22T01:59:22.470Z,-5.80
2019-01-22T02:01:50.970Z,-5.70
2019-01-22T02:04:19.494Z,-5.80
2019-01-22T02:06:48.066Z,-5.90
2019-01-22T02:09:16.529Z,-5.90
2019-01-22T02:11:44.983Z,-5.80
2019-01-22T02:14:14.141Z,-5.80
2019-01-22T02:16:57.486Z,-5.80
2019-01-22T02:19:41.049Z,-5.70
2019-01-22T02:22:24.558Z,-5.70
2019-01-22T02:25:11.233Z,-5.60
2019-01-22T02:27:51.618Z,-5.60
2019-01-22T02:30:28.916Z,-5.60
2019-01-22T02:33:15.002Z,-5.50
2019-01-22T02:36:07.746Z,-5.40
2019-01-22T02:38:54.109Z,-5.40
2019-01-22T02:41:25.622Z,-5.50
2019-01-22T02:44:08.494Z,-5.30
2019-01-22T02:46:52.288Z,-5.20
2019-01-22T02:49:23.856Z,-5.10
2019-01-22T02:52:11.513Z,-5.30
2019-01-22T02:54:43.002Z,-5.30
2019-01-22T02:57:17.294Z,-5.40
2019-01-22T02:59:48.800Z,-5.30
2019-01-22T03:02:38.575Z,-5.30
2019-01-22T03:05:32.861Z,-5.20
2019-01-22T03:08:07.282Z,-5.20
2019-01-22T03:10:41.370Z,-5.10
2019-01-22T03:13:19.062Z,-5.00
2019-01-22T03:16:23.613Z,-5.00
2019-01-22T03:18:55.206Z,-5.10
2019-01-22T03:21:26.713Z,-5.00
2019-01-22T03:24:31.645Z,-4.90
2019-01-22T03:27:03.211Z,-5.00
2019-01-22T03:29:46.226Z,-4.90
2019-01-22T03:32:35.668Z,-4.70
2019-01-22T03:35:26.758Z,-4.60
2019-01-22T03:38:01.222Z,-4.50
2019-01-22T03:40:38.232Z,-4.60
2019-01-22T03:43:12.781Z,-4.80
2019-01-22T03:45:44.362Z,-4.70
2019-01-22T03:48:31.273Z,-4.70
2019-01-22T03:51:19.712Z,-4.80
2019-01-22T03:53:59.735Z,-4.80
2019-01-22T03:56:40.081Z,-4.90
2019-01-22T03:59:08.505Z,-4.90
2019-01-22T04:01:37.005Z,-5.10
2019-01-22T04:04:05.738Z,-4.90
2019-01-22T04:06:34.239Z,-5.00
2019-01-22T04:09:05.093Z,-4.70
2019-01-22T04:11:33.799Z,-4.60
2019-01-22T04:14:02.294Z,-4.60
2019-01-22T04:16:31.099Z,-4.40
2019-01-22T04:18:59.635Z,-4.40
2019-01-22T04:21:29.994Z,-4.50
2019-01-22T04:24:40.439Z,-4.40
2019-01-22T04:27:24.908Z,-4.30
2019-01-22T04:30:35.316Z,-4.40
2019-01-22T04:33:15.538Z,-4.60
2019-01-22T04:35:49.872Z,-4.50
2019-01-22T04:38:55.757Z,-4.60
2019-01-22T04:41:36.336Z,-4.80
2019-01-22T04:44:47.871Z,-4.70
2019-01-22T04:47:25.140Z,-4.50
2019-01-22T04:50:30.967Z,-4.50
2019-01-22T04:53:27.714Z,-4.50
2019-01-22T04:58:26.050Z,-4.40
2019-01-22T05:01:00.377Z,-4.10
2019-01-22T05:03:40.739Z,-4.00
2019-01-22T05:06:18.263Z,-4.00
2019-01-22T05:09:12.012Z,-4.20
2019-01-22T05:12:05.730Z,-4.20
2019-01-22T05:14:37.429Z,-4.30
2019-01-22T05:17:08.948Z,-4.20
2019-01-22T05:19:52.322Z,-4.20
2019-01-22T05:22:46.499Z,-4.20
2019-01-22T05:25:42.574Z,-4.10
2019-01-22T05:28:20.231Z,-4.00
2019-01-22T05:30:52.006Z,-4.10
2019-01-22T05:33:24.044Z,-4.10
2019-01-22T05:36:25.733Z,-4.20
2019-01-22T05:39:15.894Z,-4.00
2019-01-22T05:41:53.545Z,-4.00
2019-01-22T05:44:41.160Z,-4.10
2019-01-22T05:47:25.386Z,-4.00
2019-01-22T05:50:02.829Z,-3.80
2019-01-22T05:53:07.564Z,-3.70
2019-01-22T05:55:41.767Z,-3.80
2019-01-22T05:58:13.792Z,-3.70
2019-01-22T06:00:51.385Z,-3.90
2019-01-22T06:03:22.886Z,-3.90
2019-01-22T06:05:54.393Z,-3.90
2019-01-22T06:08:34.766Z,-3.80
2019-01-22T06:11:27.363Z,-3.80
2019-01-22T06:14:21.083Z,-3.90
2019-01-22T06:17:19.725Z,-4.00
2019-01-22T06:19:59.999Z,-4.00
2019-01-22T06:22:50.710Z,-4.00
2019-01-22T06:25:36.986Z,-4.00
2019-01-22T06:28:13.982Z,-3.90
2019-01-22T06:31:00.594Z,-3.90
2019-01-22T06:33:38.155Z,-3.90
2019-01-22T06:36:12.784Z,-3.70
2019-01-22T06:38:56.651Z,-3.80
2019-01-22T06:41:28.156Z,-3.80
2019-01-22T06:44:08.129Z,-3.90
2019-01-22T06:46:48.514Z,-4.00
2019-01-22T06:49:29.210Z,-3.90
2019-01-22T06:52:15.958Z,-3.80
2019-01-22T06:55:08.117Z,-3.80
2019-01-22T06:58:04.510Z,-3.90
2019-01-22T07:00:42.031Z,-3.80
2019-01-22T07:03:25.565Z,-3.80
2019-01-22T07:06:22.189Z,-3.70
2019-01-22T07:09:16.330Z,-3.70
2019-01-22T07:12:06.395Z,-3.60
2019-01-22T07:14:53.020Z,-3.50
2019-01-22T07:17:27.062Z,-3.40
2019-01-22T07:20:01.495Z,-3.50
2019-01-22T07:22:36.001Z,-3.50
2019-01-22T07:25:10.474Z,-3.40
2019-01-22T07:27:45.129Z,-3.50
2019-01-22T07:30:36.257Z,-3.50
2019-01-22T07:33:27.651Z,-3.60
2019-01-22T07:46:42.871Z,-3.50
2019-01-22T07:49:32.320Z,-3.50
2019-01-22T07:52:24.238Z,-3.50
2019-01-22T07:55:12.539Z,-3.40
2019-01-22T07:57:52.981Z,-3.40
2019-01-22T08:00:48.359Z,-3.40
2019-01-22T08:04:03.538Z,-3.20
2019-01-22T08:09:37.423Z,-3.00
2019-01-22T08:12:25.504Z,-3.00
2019-01-22T08:15:18.245Z,-2.90
2019-01-22T08:17:58.649Z,-2.90
2019-01-22T08:20:30.500Z,-2.90
2019-01-22T08:23:22.711Z,-2.80
2019-01-22T08:26:12.234Z,-2.90
2019-01-22T08:29:07.214Z,-3.00
2019-01-22T08:31:42.575Z,-3.10
2019-01-22T08:34:26.070Z,-3.00
2019-01-22T08:37:09.621Z,-3.00
2019-01-22T08:42:43.634Z,-3.00
2019-01-22T08:45:24.131Z,-2.90
2019-01-22T08:48:27.330Z,-3.00
2019-01-22T08:51:16.614Z,-2.90
2019-01-22T08:54:03.485Z,-2.90
2019-01-22T08:56:40.994Z,-2.80
2019-01-22T08:59:14.922Z,-2.70
2019-01-22T09:01:55.358Z,-2.60
2019-01-22T09:04:44.898Z,-2.70
2019-01-22T09:07:22.286Z,-2.80
2019-01-22T09:10:13.406Z,-2.70
2019-01-22T09:13:05.626Z,-2.80
2019-01-22T09:16:01.074Z,-2.80
2019-01-22T09:18:56.683Z,-2.80
2019-01-22T09:22:02.786Z,-2.80
2019-01-22T09:24:58.351Z,-2.80
2019-01-22T09:27:47.660Z,-2.80
2019-01-22T09:30:19.265Z,-2.90
2019-01-22T09:32:56.990Z,-2.70
2019-01-22T09:35:46.512Z,-2.60
2019-01-22T09:38:14.950Z,-2.50
2019-01-22T09:40:43.436Z,-2.50
2019-01-22T09:43:11.989Z,-2.50
2019-01-22T09:45:40.484Z,-2.60
2019-01-22T09:48:08.918Z,-2.50
2019-01-22T09:50:37.518Z,-2.50
2019-01-22T09:53:06.009Z,-2.40
2019-01-22T09:55:34.464Z,-2.50
2019-01-22T09:58:03.040Z,-2.50
2019-01-22T10:00:31.454Z,-2.60
2019-01-22T10:02:59.878Z,-2.50
2019-01-22T10:05:28.815Z,-2.50
2019-01-22T10:07:57.326Z,-2.40
2019-01-22T10:10:25.814Z,-2.30
2019-01-22T10:12:54.302Z,-2.50
2019-01-22T10:15:22.800Z,-2.50
2019-01-22T10:17:51.601Z,-2.50
2019-01-22T10:20:24.224Z,-2.40
2019-01-22T10:22:52.806Z,-2.20
2019-01-22T10:25:21.310Z,-2.20
2019-01-22T10:27:49.930Z,-2.10
2019-01-22T10:30:21.490Z,-2.10
2019-01-22T10:32:49.915Z,-2.10
2019-01-22T10:35:18.414Z,-2.10
2019-01-22T10:37:47.037Z,-2.20
2019-01-22T10:40:18.097Z,-2.30
2019-01-22T10:42:46.516Z,-2.20
2019-01-22T10:45:16.810Z,-2.10
2019-01-22T10:47:45.383Z,-2.20
2019-01-22T10:50:16.845Z,-2.50
2019-01-22T10:52:45.420Z,-2.30
2019-01-22T10:55:14.965Z,-2.30
2019-01-22T10:57:43.630Z,-2.30
2019-01-22T11:00:18.029Z,-2.20
2019-01-22T11:02:46.453Z,-2.00
2019-01-22T11:05:18.078Z,-2.20
2019-01-22T11:07:46.639Z,-2.10
2019-01-22T11:10:15.056Z,-2.10
2019-01-22T11:12:43.497Z,-2.10
2019-01-22T11:15:13.082Z,-2.10
2019-01-22T11:17:41.501Z,-2.00
2019-01-22T11:20:22.132Z,-2.10
2019-01-22T11:22:50.549Z,-2.10
2019-01-22T11:25:21.886Z,-2.00
2019-01-22T11:27:50.437Z,-1.90
2019-01-22T11:30:21.449Z,-1.80
2019-01-22T11:32:49.944Z,-2.00
2019-01-22T11:35:20.638Z,-1.80
2019-01-22T11:37:49.118Z,-1.90
2019-01-22T11:40:32.229Z,-2.00
2019-01-22T11:43:00.797Z,-1.90
2019-01-22T11:45:29.213Z,-1.80
2019-01-22T11:47:57.633Z,-1.80
2019-01-22T11:50:26.263Z,-2.00
2019-01-22T11:52:54.687Z,-2.00
2019-01-22T11:57:54.958Z,-2.10
2019-01-22T12:00:42.303Z,-1.90
2019-01-22T12:03:10.839Z,-2.00
2019-01-22T12:05:39.266Z,-1.90
2019-01-22T12:08:07.771Z,-1.80
2019-01-22T12:10:36.267Z,-1.80
2019-01-22T12:13:04.927Z,-1.70
2019-01-22T12:15:33.356Z,-1.80
2019-01-22T12:18:01.813Z,-1.80
2019-01-22T12:20:35.938Z,-2.00
2019-01-22T12:23:04.430Z,-1.90
2019-01-22T12:25:32.952Z,-1.80
2019-01-22T12:28:01.379Z,-1.70
2019-01-22T12:30:52.146Z,-1.70
2019-01-22T12:33:20.679Z,-1.60
2019-01-22T12:35:49.108Z,-1.50
2019-01-22T12:38:17.711Z,-1.50
2019-01-22T12:40:46.126Z,-1.60
2019-01-22T12:43:14.557Z,-1.60
2019-01-22T12:46:02.611Z,-1.70
2019-01-22T12:48:31.115Z,-1.70
2019-01-22T12:50:59.544Z,-1.70
2019-01-22T12:53:28.265Z,-1.80
2019-01-22T12:55:56.683Z,-1.80
2019-01-22T12:58:25.098Z,-1.80
2019-01-22T13:00:53.650Z,-1.80
2019-01-22T13:03:22.082Z,-1.70
2019-01-22T13:05:53.241Z,-1.60
2019-01-22T13:08:21.797Z,-1.60
2019-01-22T13:10:50.297Z,-1.70
2019-01-22T13:13:18.715Z,-1.70
2019-01-22T13:15:47.171Z,-1.70
2019-01-22T13:18:15.659Z,-1.50
2019-01-22T13:21:03.643Z,-1.60
2019-01-22T13:23:32.069Z,-1.70
2019-01-22T13:26:00.557Z,-1.60
2019-01-22T13:28:29.022Z,-1.70
2019-01-22T13:30:57.535Z,-1.70
2019-01-22T13:33:25.965Z,-1.70
2019-01-22T13:35:54.750Z,-1.70
2019-01-22T13:38:23.162Z,-1.60
2019-01-22T13:40:51.601Z,-1.60
2019-01-22T13:43:20.342Z,-1.70
2019-01-22T13:45:48.778Z,-1.60
2019-01-22T13:48:17.204Z,-1.60
2019-01-22T13:51:05.250Z,-1.60
2019-01-22T13:53:33.682Z,-1.70
2019-01-22T13:56:02.097Z,-1.70
2019-01-22T13:58:30.921Z,-1.60
2019-01-22T14:00:59.375Z,-1.60
2019-01-22T14:03:27.928Z,-1.50
2019-01-22T14:08:25.389Z,-1.40
2019-01-22T14:10:53.812Z,-1.50
2019-01-22T14:13:22.282Z,-1.40
2019-01-22T14:15:50.804Z,-1.40
2019-01-22T14:18:19.300Z,-1.30
2019-01-22T14:20:47.944Z,-1.30
2019-01-22T14:23:16.366Z,-1.30
2019-01-22T14:25:45.750Z,-1.20
2019-01-22T14:28:14.354Z,-1.20
2019-01-22T14:30:42.773Z,-1.30
2019-01-22T14:33:11.213Z,-1.30
2019-01-22T14:35:39.810Z,-1.40
2019-01-22T14:38:08.314Z,-1.40
2019-01-22T14:40:36.753Z,-1.40
2019-01-22T14:43:05.402Z,-1.40
2019-01-22T14:45:33.829Z,-1.50
2019-01-22T14:48:02.264Z,-1.60
2019-01-22T14:50:32.767Z,-1.60
2019-01-22T14:53:01.194Z,-1.70
2019-01-22T14:55:29.715Z,-1.60
2019-01-22T14:57:58.290Z,-1.60
2019-01-22T15:00:28.672Z,-1.70
2019-01-22T15:02:58.537Z,-1.80
2019-01-22T15:05:27.516Z,-1.60
2019-01-22T15:07:55.930Z,-1.70
2019-01-22T15:10:24.354Z,-1.80
2019-01-22T15:12:55.430Z,-1.90
2019-01-22T15:15:23.865Z,-2.00
2019-01-22T15:17:52.356Z,-1.90
2019-01-22T15:20:25.481Z,-2.00
2019-01-22T15:22:53.977Z,-1.90
2019-01-22T15:25:22.668Z,-2.00
2019-01-22T15:27:51.163Z,-1.90
2019-01-22T15:30:22.647Z,-1.90
2019-01-22T15:32:51.066Z,-1.90
2019-01-22T15:35:19.750Z,-2.00
2019-01-22T15:37:48.173Z,-1.90
2019-01-22T15:40:19.333Z,-1.90
2019-01-22T15:42:47.961Z,-1.80
2019-01-22T15:45:16.533Z,-1.80
2019-01-22T15:47:44.967Z,-1.80
2019-01-22T15:50:16.367Z,-1.80
2019-01-22T15:52:44.797Z,-1.90
2019-01-22T15:55:19.493Z,-1.80
2019-01-22T15:57:47.972Z,-1.80
2019-01-22T16:00:18.741Z,-1.80
2019-01-22T16:02:47.329Z,-1.90
2019-01-22T16:05:16.004Z,-1.90
2019-01-22T16:07:44.605Z,-1.80
2019-01-22T16:10:13.673Z,-1.70
2019-01-22T16:12:42.095Z,-1.70
2019-01-22T16:15:16.350Z,-1.70
2019-01-22T16:17:44.894Z,-1.70
2019-01-22T16:20:16.395Z,-1.90
2019-01-22T16:22:44.826Z,-1.90
2019-01-22T16:25:14.010Z,-1.90
2019-01-22T16:27:42.422Z,-1.90
2019-01-22T16:30:16.357Z,-1.90
2019-01-22T16:32:44.878Z,-1.90
2019-01-22T16:35:15.630Z,-2.00
2019-01-22T16:37:44.194Z,-1.90
2019-01-22T16:40:14.976Z,-1.90
2019-01-22T16:42:43.543Z,-2.00
